createdAt,value
2019-01-25T00:03:16.194Z,17.57
2019-01-25T00:08:25.208Z,17.70
2019-01-25T00:13:31.608Z,21.63
2019-01-25T00:18:36.976Z,18.67
2019-01-25T00:23:41.929Z,15.60
2019-01-25T00:28:47.982Z,17.23
2019-01-25T00:33:53.306Z,16.40
2019-01-25T00:38:58.229Z,16.73
2019-01-25T00:44:03.368Z,17.67
2019-01-25T00:49:08.293Z,18.97
2019-01-25T00:54:14.741Z,18.17
2019-01-25T00:59:19.946Z,15.53
2019-01-25T01:04:25.033Z,18.77
2019-01-25T01:09:30.197Z,17.13
2019-01-25T01:14:35.323Z,19.83
2019-01-25T01:19:40.252Z,16.63
2019-01-25T01:24:45.164Z,15.27
2019-01-25T01:29:50.132Z,15.80
2019-01-25T01:34:54.908Z,16.70
2019-01-25T01:40:00.361Z,18.23
2019-01-25T01:45:07.533Z,15.10
2019-01-25T01:50:14.172Z,17.37
2019-01-25T01:55:19.097Z,15.27
2019-01-25T02:00:26.988Z,17.40
2019-01-25T02:05:32.428Z,17.90
2019-01-25T02:10:37.949Z,17.30
2019-01-25T02:15:43.385Z,16.27
2019-01-25T02:20:48.817Z,17.70
2019-01-25T02:25:53.690Z,17.13
2019-01-25T02:30:58.723Z,17.70
2019-01-25T02:36:03.834Z,18.43
2019-01-25T02:41:09.036Z,16.43
2019-01-25T02:46:14.296Z,18.27
2019-01-25T02:51:19.910Z,16.60
2019-01-25T02:56:25.222Z,17.33
2019-01-25T03:01:30.140Z,15.87
2019-01-25T03:06:35.182Z,17.40
2019-01-25T03:11:40.443Z,16.50
2019-01-25T03:16:45.226Z,16.37
2019-01-25T03:21:50.420Z,16.83
2019-01-25T03:26:55.317Z,17.73
2019-01-25T03:32:00.501Z,16.67
2019-01-25T03:37:05.662Z,16.17
2019-01-25T03:42:10.886Z,16.13
2019-01-25T03:47:16.044Z,17.50
2019-01-25T03:52:20.977Z,16.77
2019-01-25T03:57:29.257Z,16.67
2019-01-25T04:02:35.001Z,16.50
2019-01-25T04:07:40.257Z,17.63
2019-01-25T04:12:45.257Z,18.07
2019-01-25T04:17:50.440Z,17.13
2019-01-25T04:22:55.630Z,17.53
2019-01-25T04:28:00.971Z,17.10
2019-01-25T04:33:06.428Z,17.10
2019-01-25T04:38:11.351Z,16.80
2019-01-25T04:48:30.068Z,15.97
2019-01-25T04:53:36.511Z,16.70
2019-01-25T04:58:41.660Z,18.63
2019-01-25T05:03:47.204Z,17.10
2019-01-25T05:08:54.819Z,16.23
2019-01-25T05:14:00.481Z,15.97
2019-01-25T05:19:06.357Z,16.63
2019-01-25T05:24:13.593Z,15.33
2019-01-25T05:29:21.493Z,15.90
2019-01-25T05:34:26.581Z,15.23
2019-01-25T05:39:32.175Z,15.47
2019-01-25T05:44:37.745Z,15.33
2019-01-25T05:49:42.997Z,14.30
2019-01-25T05:54:48.529Z,15.87
2019-01-25T05:59:53.593Z,16.07
2019-01-25T06:04:59.027Z,15.07
2019-01-25T06:10:04.621Z,15.10
2019-01-25T06:15:09.791Z,14.83
2019-01-25T06:20:14.812Z,14.90
2019-01-25T06:25:19.909Z,15.07
2019-01-25T06:30:25.020Z,17.10
2019-01-25T06:35:30.185Z,16.20
2019-01-25T06:40:35.459Z,14.77
2019-01-25T06:45:40.628Z,15.87
2019-01-25T06:50:45.793Z,13.50
2019-01-25T06:55:51.161Z,13.93
2019-01-25T07:01:04.741Z,14.53
2019-01-25T07:06:12.144Z,14.47
2019-01-25T07:11:17.729Z,12.67
2019-01-25T07:16:23.113Z,15.07
2019-01-25T07:21:29.066Z,15.93
2019-01-25T07:26:34.195Z,14.47
2019-01-25T07:31:40.445Z,14.50
2019-01-25T07:36:45.648Z,13.37
2019-01-25T07:41:58.925Z,12.70
2019-01-25T07:46:58.629Z,13.43
2019-01-25T07:52:03.754Z,12.77
2019-01-25T07:57:14.220Z,10.07
2019-01-25T08:02:19.589Z,11.27
2019-01-25T08:07:25.261Z,9.03
2019-01-25T08:12:31.899Z,7.70
2019-01-25T08:17:37.601Z,7.40
2019-01-25T08:22:43.129Z,7.17
2019-01-25T08:33:12.645Z,6.40
2019-01-25T08:38:19.412Z,6.47
2019-01-25T08:43:25.027Z,6.40
2019-01-25T08:48:30.237Z,6.63
2019-01-25T08:53:35.683Z,6.73
2019-01-25T08:58:40.996Z,7.43
2019-01-25T09:03:46.341Z,7.43
2019-01-25T09:08:51.483Z,7.50
2019-01-25T09:13:56.739Z,8.83
2019-01-25T09:19:01.897Z,6.57
2019-01-25T09:24:07.748Z,9.90
2019-01-25T09:29:13.381Z,9.13
2019-01-25T09:34:18.787Z,8.90
2019-01-25T09:39:23.954Z,8.37
2019-01-25T09:44:29.041Z,6.83
2019-01-25T09:49:34.817Z,8.50
2019-01-25T09:54:42.456Z,6.57
2019-01-25T09:59:48.361Z,7.73
2019-01-25T10:04:54.058Z,7.47
2019-01-25T10:10:00.249Z,8.97
2019-01-25T10:15:08.248Z,6.97
2019-01-25T10:20:17.268Z,8.30
2019-01-25T10:25:22.723Z,8.23
2019-01-25T10:30:28.515Z,7.93
2019-01-25T10:35:33.757Z,6.67
2019-01-25T10:40:38.720Z,7.10
2019-01-25T10:45:44.041Z,6.13
2019-01-25T10:50:50.021Z,5.90
2019-01-25T10:55:56.960Z,6.07
2019-01-25T11:01:02.419Z,5.73
2019-01-25T11:06:07.781Z,5.03
2019-01-25T11:11:13.371Z,4.50
2019-01-25T11:16:19.841Z,4.37
2019-01-25T11:21:25.021Z,5.27
2019-01-25T11:26:30.015Z,3.57
2019-01-25T11:31:35.260Z,3.90
2019-01-25T11:36:42.898Z,3.97
2019-01-25T11:41:47.873Z,4.40
2019-01-25T11:46:53.532Z,4.37
2019-01-25T11:51:58.862Z,4.93
2019-01-25T11:57:06.266Z,3.87
2019-01-25T12:02:11.985Z,5.13
2019-01-25T12:07:17.137Z,5.10
2019-01-25T12:12:22.475Z,4.73
2019-01-25T12:17:29.608Z,4.43
2019-01-25T12:22:35.024Z,4.40
2019-01-25T12:27:40.215Z,4.03
2019-01-25T12:32:46.949Z,4.20
2019-01-25T12:37:52.421Z,4.07
2019-01-25T12:42:57.694Z,4.40
2019-01-25T12:48:02.874Z,3.87
2019-01-25T12:53:08.474Z,3.73
2019-01-25T12:58:13.873Z,4.40
2019-01-25T13:03:19.300Z,4.60
2019-01-25T13:08:24.251Z,4.70
2019-01-25T13:13:31.762Z,4.53
2019-01-25T13:18:36.490Z,4.00
2019-01-25T13:23:42.045Z,3.90
2019-01-25T13:28:46.942Z,4.40
2019-01-25T13:33:52.443Z,5.17
2019-01-25T13:38:57.745Z,5.03
2019-01-25T13:44:03.027Z,4.47
2019-01-25T13:49:08.249Z,4.00
2019-01-25T13:54:13.263Z,4.50
2019-01-25T13:59:18.382Z,3.97
2019-01-25T14:04:25.116Z,4.93
2019-01-25T14:09:31.767Z,4.63
2019-01-25T14:14:36.964Z,4.90
2019-01-25T14:19:42.302Z,5.37
2019-01-25T14:24:47.596Z,5.80
2019-01-25T14:29:53.425Z,5.30
2019-01-25T14:34:58.519Z,4.93
2019-01-25T14:40:03.501Z,4.77
2019-01-25T14:45:11.434Z,4.70
2019-01-25T14:50:19.349Z,5.53
2019-01-25T14:55:24.790Z,5.80
2019-01-25T15:00:30.521Z,5.77
2019-01-25T15:05:36.845Z,5.37
2019-01-25T15:10:42.031Z,6.43
2019-01-25T15:15:47.331Z,6.23
2019-01-25T15:20:52.493Z,7.10
2019-01-25T15:25:58.812Z,7.10
2019-01-25T15:31:03.891Z,6.73
2019-01-25T15:36:10.476Z,7.50
2019-01-25T15:42:05.500Z,6.60
2019-01-25T15:47:10.488Z,7.40
2019-01-25T15:52:15.653Z,6.37
2019-01-25T15:57:23.102Z,6.60
2019-01-25T16:02:28.897Z,7.73
2019-01-25T16:07:33.821Z,8.33
2019-01-25T16:12:39.635Z,7.83
2019-01-25T16:17:45.284Z,8.23
2019-01-25T16:22:52.660Z,7.73
2019-01-25T16:27:58.618Z,8.03
2019-01-25T16:33:07.688Z,7.40
2019-01-25T16:38:16.690Z,7.87
2019-01-25T16:43:21.925Z,8.10
2019-01-25T16:48:27.623Z,7.33
2019-01-25T16:53:34.141Z,7.53
2019-01-25T16:58:39.309Z,8.17
2019-01-25T17:03:47.604Z,7.77
2019-01-25T17:08:52.623Z,7.20
2019-01-25T17:13:57.843Z,7.73
2019-01-25T17:19:02.940Z,6.47
2019-01-25T17:24:07.889Z,6.67
2019-01-25T17:29:12.876Z,6.67
2019-01-25T17:34:18.327Z,6.47
2019-01-25T17:39:23.766Z,6.90
2019-01-25T17:44:29.330Z,5.93
2019-01-25T17:49:34.325Z,7.50
2019-01-25T17:54:39.332Z,6.57
2019-01-25T17:59:45.260Z,6.73
2019-01-25T18:04:51.627Z,6.80
2019-01-25T18:09:56.890Z,6.40
2019-01-25T18:15:02.142Z,5.40
2019-01-25T18:20:08.959Z,6.70
2019-01-25T18:25:20.470Z,5.33
2019-01-25T18:30:29.836Z,5.33
2019-01-25T18:35:34.745Z,5.47
2019-01-25T18:40:39.924Z,5.47
2019-01-25T18:45:44.910Z,5.30
2019-01-25T18:50:52.073Z,5.70
2019-01-25T18:55:57.254Z,5.00
2019-01-25T19:01:02.598Z,5.27
2019-01-25T19:06:08.087Z,5.30
2019-01-25T19:11:16.249Z,5.13
2019-01-25T19:16:21.281Z,4.40
2019-01-25T19:21:27.964Z,4.53
2019-01-25T19:26:32.973Z,4.20
2019-01-25T19:31:38.600Z,4.30
2019-01-25T19:36:46.904Z,4.40
2019-01-25T19:41:52.585Z,4.43
2019-01-25T19:46:59.796Z,4.30
2019-01-25T19:52:07.924Z,4.27
2019-01-25T19:57:13.154Z,5.13
2019-01-25T20:02:19.680Z,4.03
2019-01-25T20:07:24.863Z,4.03
2019-01-25T20:12:30.625Z,3.90
2019-01-25T20:17:36.228Z,4.27
2019-01-25T20:22:41.658Z,5.47
2019-01-25T20:27:48.186Z,4.27
2019-01-25T20:32:59.001Z,3.80
2019-01-25T20:38:04.182Z,4.03
2019-01-25T20:43:09.797Z,3.67
2019-01-25T20:48:14.791Z,3.23
2019-01-25T20:53:21.524Z,3.73
2019-01-25T20:58:26.790Z,4.40
2019-01-25T21:03:32.264Z,3.90
2019-01-25T21:08:38.811Z,2.97
2019-01-25T21:13:43.939Z,3.50
2019-01-25T21:18:51.297Z,3.73
2019-01-25T21:23:57.168Z,3.30
2019-01-25T21:29:02.379Z,2.90
2019-01-25T21:34:07.638Z,2.90
2019-01-25T21:39:12.883Z,2.80
2019-01-25T21:44:17.785Z,2.70
2019-01-25T21:49:22.722Z,3.03
2019-01-25T21:54:27.968Z,3.00
2019-01-25T21:59:33.229Z,2.43
2019-01-25T22:04:38.142Z,3.17
2019-01-25T22:09:43.709Z,2.80
2019-01-25T22:14:48.624Z,2.97
2019-01-25T22:19:53.761Z,2.90
2019-01-25T22:24:59.288Z,2.60
2019-01-25T22:30:07.870Z,2.40
2019-01-25T22:35:13.009Z,2.80
2019-01-25T22:40:24.353Z,2.50
2019-01-25T22:45:31.138Z,2.83
2019-01-25T22:50:38.336Z,2.90
2019-01-25T22:55:43.920Z,3.13
2019-01-25T23:01:01.323Z,3.47
2019-01-25T23:06:41.886Z,3.07
2019-01-25T23:11:47.083Z,3.43
2019-01-25T23:16:52.272Z,3.27
2019-01-25T23:21:57.279Z,3.40
2019-01-25T23:27:02.457Z,3.77
2019-01-25T23:32:07.597Z,3.57
2019-01-25T23:37:12.918Z,3.63
2019-01-25T23:42:18.348Z,3.60
2019-01-25T23:47:23.456Z,3.40
2019-01-25T23:52:30.941Z,4.20
2019-01-25T23:57:37.694Z,3.93
